sensor_id;sensor_type;location;lat;lon;timestamp;P1;durP1;ratioP1;P2;durP2;ratioP2
39020;SDS011;25188;51.958;5.842;2023-05-25T00:01:34;6.53;;;2.53;;
39020;SDS011;25188;51.958;5.842;2023-05-25T00:04:00;7.73;;;2.67;;
39020;SDS011;25188;51.958;5.842;2023-05-25T00:06:29;11.70;;;3.13;;
39020;SDS011;25188;51.958;5.842;2023-05-25T00:08:56;10.55;;;2.80;;
39020;SDS011;25188;51.958;5.842;2023-05-25T00:11:22;11.07;;;2.92;;
39020;SDS011;25188;51.958;5.842;2023-05-25T00:13:48;5.60;;;2.43;;
39020;SDS011;25188;51.958;5.842;2023-05-25T00:16:15;7.23;;;2.67;;
39020;SDS011;25188;51.958;5.842;2023-05-25T00:18:41;6.80;;;2.80;;
39020;SDS011;25188;51.958;5.842;2023-05-25T00:21:07;10.57;;;3.10;;
39020;SDS011;25188;51.958;5.842;2023-05-25T00:23:33;13.23;;;3.35;;
39020;SDS011;25188;51.958;5.842;2023-05-25T00:25:59;7.40;;;2.60;;
39020;SDS011;25188;51.958;5.842;2023-05-25T00:28:26;11.30;;;3.30;;
39020;SDS011;25188;51.958;5.842;2023-05-25T00:30:52;14.67;;;3.60;;
39020;SDS011;25188;51.958;5.842;2023-05-25T00:33:17;10.43;;;2.93;;
39020;SDS011;25188;51.958;5.842;2023-05-25T00:35:43;12.30;;;3.17;;
39020;SDS011;25188;51.958;5.842;2023-05-25T00:38:14;10.33;;;2.63;;
39020;SDS011;25188;51.958;5.842;2023-05-25T00:40:43;10.23;;;3.35;;
39020;SDS011;25188;51.958;5.842;2023-05-25T00:43:10;8.37;;;2.90;;
39020;SDS011;25188;51.958;5.842;2023-05-25T00:45:37;6.33;;;2.87;;
39020;SDS011;25188;51.958;5.842;2023-05-25T00:48:03;9.33;;;2.87;;
39020;SDS011;25188;51.958;5.842;2023-05-25T00:50:39;10.87;;;3.07;;
39020;SDS011;25188;51.958;5.842;2023-05-25T00:53:06;12.93;;;3.40;;
39020;SDS011;25188;51.958;5.842;2023-05-25T00:55:41;11.60;;;2.87;;
39020;SDS011;25188;51.958;5.842;2023-05-25T00:58:13;8.27;;;3.50;;
39020;SDS011;25188;51.958;5.842;2023-05-25T01:00:41;11.73;;;3.53;;
39020;SDS011;25188;51.958;5.842;2023-05-25T01:03:13;9.47;;;3.30;;
39020;SDS011;25188;51.958;5.842;2023-05-25T01:05:43;9.47;;;3.40;;
39020;SDS011;25188;51.958;5.842;2023-05-25T01:08:13;14.03;;;3.40;;
39020;SDS011;25188;51.958;5.842;2023-05-25T01:10:41;14.43;;;3.63;;
39020;SDS011;25188;51.958;5.842;2023-05-25T01:13:07;12.07;;;3.37;;
39020;SDS011;25188;51.958;5.842;2023-05-25T01:15:36;7.90;;;3.27;;
39020;SDS011;25188;51.958;5.842;2023-05-25T01:18:03;9.37;;;3.40;;
39020;SDS011;25188;51.958;5.842;2023-05-25T01:20:28;12.03;;;3.30;;
39020;SDS011;25188;51.958;5.842;2023-05-25T01:25:45;10.13;;;3.03;;
39020;SDS011;25188;51.958;5.842;2023-05-25T01:28:20;9.15;;;3.30;;
39020;SDS011;25188;51.958;5.842;2023-05-25T01:30:50;10.77;;;3.37;;
39020;SDS011;25188;51.958;5.842;2023-05-25T01:33:17;10.40;;;3.53;;
39020;SDS011;25188;51.958;5.842;2023-05-25T01:35:43;11.73;;;3.47;;
39020;SDS011;25188;51.958;5.842;2023-05-25T01:38:11;11.03;;;2.93;;
39020;SDS011;25188;51.958;5.842;2023-05-25T01:40:37;7.63;;;3.30;;
39020;SDS011;25188;51.958;5.842;2023-05-25T01:43:02;11.27;;;3.53;;
39020;SDS011;25188;51.958;5.842;2023-05-25T01:45:28;10.23;;;3.17;;
39020;SDS011;25188;51.958;5.842;2023-05-25T01:53:18;14.60;;;3.80;;
39020;SDS011;25188;51.958;5.842;2023-05-25T01:55:52;10.70;;;4.00;;
39020;SDS011;25188;51.958;5.842;2023-05-25T01:58:34;10.73;;;3.70;;
39020;SDS011;25188;51.958;5.842;2023-05-25T02:01:08;8.43;;;3.10;;
39020;SDS011;25188;51.958;5.842;2023-05-25T02:03:37;10.90;;;3.87;;
39020;SDS011;25188;51.958;5.842;2023-05-25T02:06:05;10.00;;;3.27;;
39020;SDS011;25188;51.958;5.842;2023-05-25T02:08:32;10.20;;;3.30;;
39020;SDS011;25188;51.958;5.842;2023-05-25T02:10:57;10.90;;;3.63;;
39020;SDS011;25188;51.958;5.842;2023-05-25T02:13:23;10.63;;;3.43;;
39020;SDS011;25188;51.958;5.842;2023-05-25T02:15:49;11.70;;;3.37;;
39020;SDS011;25188;51.958;5.842;2023-05-25T02:18:14;8.97;;;4.07;;
39020;SDS011;25188;51.958;5.842;2023-05-25T02:20:42;13.27;;;3.83;;
39020;SDS011;25188;51.958;5.842;2023-05-25T02:23:08;14.17;;;3.63;;
39020;SDS011;25188;51.958;5.842;2023-05-25T02:25:34;9.53;;;3.27;;
39020;SDS011;25188;51.958;5.842;2023-05-25T02:28:00;8.43;;;3.63;;
39020;SDS011;25188;51.958;5.842;2023-05-25T02:30:25;8.17;;;3.47;;
39020;SDS011;25188;51.958;5.842;2023-05-25T02:32:51;14.13;;;4.17;;
39020;SDS011;25188;51.958;5.842;2023-05-25T02:35:17;10.70;;;3.83;;
39020;SDS011;25188;51.958;5.842;2023-05-25T02:37:43;8.07;;;3.50;;
39020;SDS011;25188;51.958;5.842;2023-05-25T02:40:09;7.47;;;3.37;;
39020;SDS011;25188;51.958;5.842;2023-05-25T02:42:36;12.73;;;3.60;;
39020;SDS011;25188;51.958;5.842;2023-05-25T02:45:02;10.23;;;3.57;;
39020;SDS011;25188;51.958;5.842;2023-05-25T02:47:30;11.30;;;4.50;;
39020;SDS011;25188;51.958;5.842;2023-05-25T02:49:56;13.80;;;4.17;;
39020;SDS011;25188;51.958;5.842;2023-05-25T02:52:21;10.90;;;3.90;;
39020;SDS011;25188;51.958;5.842;2023-05-25T02:54:49;10.17;;;5.10;;
39020;SDS011;25188;51.958;5.842;2023-05-25T02:57:15;11.13;;;4.03;;
39020;SDS011;25188;51.958;5.842;2023-05-25T02:59:40;11.50;;;4.00;;
39020;SDS011;25188;51.958;5.842;2023-05-25T03:02:06;8.30;;;3.80;;
39020;SDS011;25188;51.958;5.842;2023-05-25T03:04:32;12.73;;;3.90;;
39020;SDS011;25188;51.958;5.842;2023-05-25T03:07:01;9.07;;;3.67;;
39020;SDS011;25188;51.958;5.842;2023-05-25T03:09:27;13.20;;;3.53;;
39020;SDS011;25188;51.958;5.842;2023-05-25T03:11:52;11.07;;;3.90;;
39020;SDS011;25188;51.958;5.842;2023-05-25T03:14:18;12.23;;;4.20;;
39020;SDS011;25188;51.958;5.842;2023-05-25T03:16:44;9.13;;;4.10;;
39020;SDS011;25188;51.958;5.842;2023-05-25T03:19:09;10.73;;;3.63;;
39020;SDS011;25188;51.958;5.842;2023-05-25T03:21:36;16.27;;;4.20;;
39020;SDS011;25188;51.958;5.842;2023-05-25T03:24:02;9.63;;;4.10;;
39020;SDS011;25188;51.958;5.842;2023-05-25T03:26:28;10.97;;;4.13;;
39020;SDS011;25188;51.958;5.842;2023-05-25T03:28:54;9.70;;;4.17;;
39020;SDS011;25188;51.958;5.842;2023-05-25T03:31:20;11.97;;;4.37;;
39020;SDS011;25188;51.958;5.842;2023-05-25T03:33:46;8.83;;;4.10;;
39020;SDS011;25188;51.958;5.842;2023-05-25T03:36:12;11.07;;;3.50;;
39020;SDS011;25188;51.958;5.842;2023-05-25T03:38:41;12.10;;;4.50;;
39020;SDS011;25188;51.958;5.842;2023-05-25T03:41:07;8.50;;;3.70;;
39020;SDS011;25188;51.958;5.842;2023-05-25T03:43:33;14.73;;;5.07;;
39020;SDS011;25188;51.958;5.842;2023-05-25T03:45:59;10.70;;;4.10;;
39020;SDS011;25188;51.958;5.842;2023-05-25T03:48:24;10.27;;;4.03;;
39020;SDS011;25188;51.958;5.842;2023-05-25T03:50:50;11.80;;;4.47;;
39020;SDS011;25188;51.958;5.842;2023-05-25T03:53:16;9.07;;;3.40;;
39020;SDS011;25188;51.958;5.842;2023-05-25T03:55:41;10.93;;;4.33;;
39020;SDS011;25188;51.958;5.842;2023-05-25T03:58:07;10.33;;;4.00;;
39020;SDS011;25188;51.958;5.842;2023-05-25T04:00:34;11.37;;;3.60;;
39020;SDS011;25188;51.958;5.842;2023-05-25T04:03:00;10.97;;;3.77;;
39020;SDS011;25188;51.958;5.842;2023-05-25T04:05:26;14.33;;;3.87;;
39020;SDS011;25188;51.958;5.842;2023-05-25T04:07:51;13.17;;;4.27;;
39020;SDS011;25188;51.958;5.842;2023-05-25T04:10:17;12.70;;;4.40;;
39020;SDS011;25188;51.958;5.842;2023-05-25T04:12:43;15.57;;;4.07;;
39020;SDS011;25188;51.958;5.842;2023-05-25T04:15:08;12.97;;;5.00;;
39020;SDS011;25188;51.958;5.842;2023-05-25T04:17:36;12.13;;;3.63;;
39020;SDS011;25188;51.958;5.842;2023-05-25T04:20:02;11.80;;;4.87;;
39020;SDS011;25188;51.958;5.842;2023-05-25T04:22:28;14.23;;;4.37;;
39020;SDS011;25188;51.958;5.842;2023-05-25T04:24:54;13.83;;;5.30;;
39020;SDS011;25188;51.958;5.842;2023-05-25T04:27:20;11.53;;;4.07;;
39020;SDS011;25188;51.958;5.842;2023-05-25T04:29:46;15.63;;;4.80;;
39020;SDS011;25188;51.958;5.842;2023-05-25T04:32:14;11.10;;;5.20;;
39020;SDS011;25188;51.958;5.842;2023-05-25T04:34:41;13.17;;;4.53;;
39020;SDS011;25188;51.958;5.842;2023-05-25T04:37:08;13.17;;;5.20;;
39020;SDS011;25188;51.958;5.842;2023-05-25T04:39:34;15.80;;;4.73;;
39020;SDS011;25188;51.958;5.842;2023-05-25T04:42:00;14.13;;;4.53;;
39020;SDS011;25188;51.958;5.842;2023-05-25T04:44:28;9.10;;;4.17;;
39020;SDS011;25188;51.958;5.842;2023-05-25T04:46:54;12.40;;;4.67;;
39020;SDS011;25188;51.958;5.842;2023-05-25T04:49:20;15.10;;;5.00;;
39020;SDS011;25188;51.958;5.842;2023-05-25T04:51:46;14.70;;;4.20;;
39020;SDS011;25188;51.958;5.842;2023-05-25T04:54:12;14.30;;;4.70;;
39020;SDS011;25188;51.958;5.842;2023-05-25T04:56:37;13.13;;;4.60;;
39020;SDS011;25188;51.958;5.842;2023-05-25T04:59:03;18.43;;;5.07;;
39020;SDS011;25188;51.958;5.842;2023-05-25T05:01:29;13.33;;;5.00;;
39020;SDS011;25188;51.958;5.842;2023-05-25T05:03:55;19.03;;;5.13;;
39020;SDS011;25188;51.958;5.842;2023-05-25T05:06:21;13.33;;;4.87;;
39020;SDS011;25188;51.958;5.842;2023-05-25T05:08:46;14.53;;;4.67;;
39020;SDS011;25188;51.958;5.842;2023-05-25T05:11:12;13.33;;;4.87;;
39020;SDS011;25188;51.958;5.842;2023-05-25T05:13:38;15.07;;;4.90;;
39020;SDS011;25188;51.958;5.842;2023-05-25T05:16:04;11.10;;;5.00;;
39020;SDS011;25188;51.958;5.842;2023-05-25T05:18:30;12.03;;;4.83;;
39020;SDS011;25188;51.958;5.842;2023-05-25T05:20:57;14.63;;;5.20;;
39020;SDS011;25188;51.958;5.842;2023-05-25T05:23:22;14.33;;;5.07;;
39020;SDS011;25188;51.958;5.842;2023-05-25T05:25:48;13.87;;;5.30;;
39020;SDS011;25188;51.958;5.842;2023-05-25T05:28:13;13.77;;;4.83;;
39020;SDS011;25188;51.958;5.842;2023-05-25T05:30:39;12.70;;;4.30;;
39020;SDS011;25188;51.958;5.842;2023-05-25T05:33:05;12.80;;;5.07;;
39020;SDS011;25188;51.958;5.842;2023-05-25T05:35:30;15.60;;;5.20;;
39020;SDS011;25188;51.958;5.842;2023-05-25T05:37:56;12.83;;;5.27;;
39020;SDS011;25188;51.958;5.842;2023-05-25T05:40:22;13.80;;;4.70;;
39020;SDS011;25188;51.958;5.842;2023-05-25T05:42:47;12.80;;;5.23;;
39020;SDS011;25188;51.958;5.842;2023-05-25T05:45:13;18.42;;;5.63;;
39020;SDS011;25188;51.958;5.842;2023-05-25T05:47:39;11.05;;;5.10;;
39020;SDS011;25188;51.958;5.842;2023-05-25T05:50:05;13.95;;;4.90;;
39020;SDS011;25188;51.958;5.842;2023-05-25T05:52:31;12.60;;;4.65;;
39020;SDS011;25188;51.958;5.842;2023-05-25T05:54:57;14.45;;;5.35;;
39020;SDS011;25188;51.958;5.842;2023-05-25T05:57:22;18.95;;;4.88;;
39020;SDS011;25188;51.958;5.842;2023-05-25T05:59:48;14.10;;;5.32;;
39020;SDS011;25188;51.958;5.842;2023-05-25T06:02:14;14.95;;;4.75;;
39020;SDS011;25188;51.958;5.842;2023-05-25T06:04:39;12.70;;;4.60;;
39020;SDS011;25188;51.958;5.842;2023-05-25T06:07:05;12.55;;;5.15;;
39020;SDS011;25188;51.958;5.842;2023-05-25T06:09:30;11.93;;;4.60;;
39020;SDS011;25188;51.958;5.842;2023-05-25T06:11:56;14.23;;;4.20;;
39020;SDS011;25188;51.958;5.842;2023-05-25T06:14:22;14.70;;;5.13;;
39020;SDS011;25188;51.958;5.842;2023-05-25T06:16:47;16.75;;;4.68;;
39020;SDS011;25188;51.958;5.842;2023-05-25T06:19:15;15.15;;;5.15;;
39020;SDS011;25188;51.958;5.842;2023-05-25T06:21:40;18.23;;;5.18;;
39020;SDS011;25188;51.958;5.842;2023-05-25T06:24:06;16.30;;;4.68;;
39020;SDS011;25188;51.958;5.842;2023-05-25T06:26:32;13.38;;;4.38;;
39020;SDS011;25188;51.958;5.842;2023-05-25T06:28:57;12.20;;;4.50;;
39020;SDS011;25188;51.958;5.842;2023-05-25T06:31:23;13.07;;;4.55;;
39020;SDS011;25188;51.958;5.842;2023-05-25T06:33:48;15.15;;;4.57;;
39020;SDS011;25188;51.958;5.842;2023-05-25T06:36:14;14.48;;;4.85;;
39020;SDS011;25188;51.958;5.842;2023-05-25T06:38:40;10.00;;;4.63;;
39020;SDS011;25188;51.958;5.842;2023-05-25T06:41:06;9.88;;;4.03;;
39020;SDS011;25188;51.958;5.842;2023-05-25T06:43:33;14.57;;;4.88;;
39020;SDS011;25188;51.958;5.842;2023-05-25T06:45:59;19.60;;;4.85;;
39020;SDS011;25188;51.958;5.842;2023-05-25T06:48:25;12.57;;;3.97;;
39020;SDS011;25188;51.958;5.842;2023-05-25T06:50:50;13.88;;;4.25;;
39020;SDS011;25188;51.958;5.842;2023-05-25T06:53:16;11.07;;;3.63;;
39020;SDS011;25188;51.958;5.842;2023-05-25T06:55:41;12.90;;;4.55;;
39020;SDS011;25188;51.958;5.842;2023-05-25T06:58:07;10.13;;;4.25;;
39020;SDS011;25188;51.958;5.842;2023-05-25T07:00:33;13.55;;;4.28;;
39020;SDS011;25188;51.958;5.842;2023-05-25T07:02:58;10.52;;;3.58;;
39020;SDS011;25188;51.958;5.842;2023-05-25T07:05:25;13.25;;;4.35;;
39020;SDS011;25188;51.958;5.842;2023-05-25T07:07:51;13.57;;;3.92;;
39020;SDS011;25188;51.958;5.842;2023-05-25T07:10:16;14.45;;;4.35;;
39020;SDS011;25188;51.958;5.842;2023-05-25T07:12:42;12.07;;;3.47;;
39020;SDS011;25188;51.958;5.842;2023-05-25T07:15:08;12.18;;;3.28;;
39020;SDS011;25188;51.958;5.842;2023-05-25T07:17:34;12.00;;;3.03;;
39020;SDS011;25188;51.958;5.842;2023-05-25T07:20:00;8.15;;;3.42;;
39020;SDS011;25188;51.958;5.842;2023-05-25T07:22:26;8.73;;;2.88;;
39020;SDS011;25188;51.958;5.842;2023-05-25T07:24:52;11.07;;;3.15;;
39020;SDS011;25188;51.958;5.842;2023-05-25T07:27:18;9.93;;;2.10;;
39020;SDS011;25188;51.958;5.842;2023-05-25T07:29:43;10.68;;;2.95;;
39020;SDS011;25188;51.958;5.842;2023-05-25T07:32:09;9.73;;;2.35;;
39020;SDS011;25188;51.958;5.842;2023-05-25T07:34:35;13.52;;;2.83;;
39020;SDS011;25188;51.958;5.842;2023-05-25T07:37:01;8.27;;;1.77;;
39020;SDS011;25188;51.958;5.842;2023-05-25T07:39:26;10.88;;;2.38;;
39020;SDS011;25188;51.958;5.842;2023-05-25T07:41:52;12.18;;;3.63;;
39020;SDS011;25188;51.958;5.842;2023-05-25T07:44:18;11.75;;;2.17;;
39020;SDS011;25188;51.958;5.842;2023-05-25T07:46:43;8.45;;;2.03;;
39020;SDS011;25188;51.958;5.842;2023-05-25T07:49:09;8.98;;;2.10;;
39020;SDS011;25188;51.958;5.842;2023-05-25T07:51:43;10.43;;;2.25;;
39020;SDS011;25188;51.958;5.842;2023-05-25T07:54:09;8.02;;;1.90;;
39020;SDS011;25188;51.958;5.842;2023-05-25T07:56:35;10.27;;;2.15;;
39020;SDS011;25188;51.958;5.842;2023-05-25T07:59:01;12.18;;;2.00;;
39020;SDS011;25188;51.958;5.842;2023-05-25T08:01:27;6.25;;;1.90;;
39020;SDS011;25188;51.958;5.842;2023-05-25T08:03:53;8.82;;;2.00;;
39020;SDS011;25188;51.958;5.842;2023-05-25T08:06:19;10.27;;;2.03;;
39020;SDS011;25188;51.958;5.842;2023-05-25T08:08:44;8.45;;;2.08;;
39020;SDS011;25188;51.958;5.842;2023-05-25T08:11:10;6.40;;;2.03;;
39020;SDS011;25188;51.958;5.842;2023-05-25T08:13:37;8.07;;;1.70;;
39020;SDS011;25188;51.958;5.842;2023-05-25T08:16:03;8.57;;;2.25;;
39020;SDS011;25188;51.958;5.842;2023-05-25T08:18:29;7.30;;;1.80;;
39020;SDS011;25188;51.958;5.842;2023-05-25T08:20:55;9.77;;;2.25;;
39020;SDS011;25188;51.958;5.842;2023-05-25T08:23:21;7.97;;;2.30;;
39020;SDS011;25188;51.958;5.842;2023-05-25T08:25:47;7.47;;;1.35;;
39020;SDS011;25188;51.958;5.842;2023-05-25T08:28:13;7.75;;;2.03;;
39020;SDS011;25188;51.958;5.842;2023-05-25T08:30:38;8.40;;;2.13;;
39020;SDS011;25188;51.958;5.842;2023-05-25T08:33:05;7.97;;;1.90;;
39020;SDS011;25188;51.958;5.842;2023-05-25T08:35:31;9.13;;;1.63;;
39020;SDS011;25188;51.958;5.842;2023-05-25T08:37:57;10.77;;;1.63;;
39020;SDS011;25188;51.958;5.842;2023-05-25T08:40:22;6.88;;;2.00;;
39020;SDS011;25188;51.958;5.842;2023-05-25T08:42:52;7.15;;;1.83;;
39020;SDS011;25188;51.958;5.842;2023-05-25T08:45:18;6.95;;;1.73;;
39020;SDS011;25188;51.958;5.842;2023-05-25T08:47:43;7.50;;;2.15;;
39020;SDS011;25188;51.958;5.842;2023-05-25T08:50:12;9.63;;;1.90;;
39020;SDS011;25188;51.958;5.842;2023-05-25T08:52:43;7.07;;;1.70;;
39020;SDS011;25188;51.958;5.842;2023-05-25T08:55:10;8.80;;;2.17;;
39020;SDS011;25188;51.958;5.842;2023-05-25T08:57:44;10.15;;;2.28;;
39020;SDS011;25188;51.958;5.842;2023-05-25T09:00:39;7.95;;;1.95;;
39020;SDS011;25188;51.958;5.842;2023-05-25T09:03:12;9.85;;;2.15;;
39020;SDS011;25188;51.958;5.842;2023-05-25T09:05:41;8.52;;;1.70;;
39020;SDS011;25188;51.958;5.842;2023-05-25T09:08:07;5.15;;;1.63;;
39020;SDS011;25188;51.958;5.842;2023-05-25T09:10:37;11.55;;;2.95;;
39020;SDS011;25188;51.958;5.842;2023-05-25T09:13:03;7.97;;;2.08;;
39020;SDS011;25188;51.958;5.842;2023-05-25T09:15:30;8.18;;;2.15;;
39020;SDS011;25188;51.958;5.842;2023-05-25T09:17:58;10.85;;;2.25;;
39020;SDS011;25188;51.958;5.842;2023-05-25T09:20:25;7.20;;;1.70;;
39020;SDS011;25188;51.958;5.842;2023-05-25T09:22:55;8.15;;;2.28;;
39020;SDS011;25188;51.958;5.842;2023-05-25T09:25:27;7.85;;;1.95;;
39020;SDS011;25188;51.958;5.842;2023-05-25T09:27:55;6.80;;;2.47;;
39020;SDS011;25188;51.958;5.842;2023-05-25T09:30:23;10.38;;;2.40;;
39020;SDS011;25188;51.958;5.842;2023-05-25T09:32:51;9.73;;;2.58;;
39020;SDS011;25188;51.958;5.842;2023-05-25T09:35:17;9.80;;;2.17;;
39020;SDS011;25188;51.958;5.842;2023-05-25T09:37:43;9.43;;;2.13;;
39020;SDS011;25188;51.958;5.842;2023-05-25T09:40:09;6.75;;;1.85;;
39020;SDS011;25188;51.958;5.842;2023-05-25T09:42:35;6.93;;;1.98;;
39020;SDS011;25188;51.958;5.842;2023-05-25T09:45:02;8.25;;;2.22;;
39020;SDS011;25188;51.958;5.842;2023-05-25T09:47:28;7.95;;;2.05;;
39020;SDS011;25188;51.958;5.842;2023-05-25T09:49:54;5.32;;;1.52;;
39020;SDS011;25188;51.958;5.842;2023-05-25T09:52:20;5.93;;;1.40;;
39020;SDS011;25188;51.958;5.842;2023-05-25T09:54:47;5.60;;;1.65;;
39020;SDS011;25188;51.958;5.842;2023-05-25T09:57:14;8.40;;;2.42;;
39020;SDS011;25188;51.958;5.842;2023-05-25T09:59:41;6.13;;;1.60;;
39020;SDS011;25188;51.958;5.842;2023-05-25T10:02:07;6.05;;;1.67;;
39020;SDS011;25188;51.958;5.842;2023-05-25T10:04:33;8.35;;;2.60;;
39020;SDS011;25188;51.958;5.842;2023-05-25T10:07:08;7.75;;;2.28;;
39020;SDS011;25188;51.958;5.842;2023-05-25T10:09:40;6.78;;;1.83;;
39020;SDS011;25188;51.958;5.842;2023-05-25T10:12:09;7.10;;;1.90;;
39020;SDS011;25188;51.958;5.842;2023-05-25T10:14:36;4.72;;;1.67;;
39020;SDS011;25188;51.958;5.842;2023-05-25T10:17:03;7.30;;;1.95;;
39020;SDS011;25188;51.958;5.842;2023-05-25T10:19:45;5.45;;;1.80;;
39020;SDS011;25188;51.958;5.842;2023-05-25T10:24:43;7.43;;;2.35;;
39020;SDS011;25188;51.958;5.842;2023-05-25T10:27:21;5.22;;;1.55;;
39020;SDS011;25188;51.958;5.842;2023-05-25T10:29:54;6.97;;;1.73;;
39020;SDS011;25188;51.958;5.842;2023-05-25T10:32:20;3.90;;;1.17;;
39020;SDS011;25188;51.958;5.842;2023-05-25T10:34:47;4.60;;;1.50;;
39020;SDS011;25188;51.958;5.842;2023-05-25T10:37:15;5.35;;;1.20;;
39020;SDS011;25188;51.958;5.842;2023-05-25T10:39:41;5.05;;;1.20;;
39020;SDS011;25188;51.958;5.842;2023-05-25T10:42:10;5.85;;;1.17;;
39020;SDS011;25188;51.958;5.842;2023-05-25T10:44:37;4.78;;;1.25;;
39020;SDS011;25188;51.958;5.842;2023-05-25T10:47:05;6.90;;;1.55;;
39020;SDS011;25188;51.958;5.842;2023-05-25T10:49:31;3.55;;;1.40;;
39020;SDS011;25188;51.958;5.842;2023-05-25T10:51:58;4.70;;;1.40;;
39020;SDS011;25188;51.958;5.842;2023-05-25T10:54:29;6.10;;;1.55;;
39020;SDS011;25188;51.958;5.842;2023-05-25T10:57:11;6.53;;;1.95;;
39020;SDS011;25188;51.958;5.842;2023-05-25T10:59:42;6.25;;;1.95;;
39020;SDS011;25188;51.958;5.842;2023-05-25T11:02:09;5.63;;;1.25;;
39020;SDS011;25188;51.958;5.842;2023-05-25T11:04:35;5.72;;;1.33;;
39020;SDS011;25188;51.958;5.842;2023-05-25T11:09:27;4.75;;;1.77;;
39020;SDS011;25188;51.958;5.842;2023-05-25T11:17:12;8.18;;;1.92;;
39020;SDS011;25188;51.958;5.842;2023-05-25T11:19:52;5.82;;;1.50;;
39020;SDS011;25188;51.958;5.842;2023-05-25T11:22:21;5.30;;;1.50;;
39020;SDS011;25188;51.958;5.842;2023-05-25T11:24:54;6.05;;;1.40;;
39020;SDS011;25188;51.958;5.842;2023-05-25T11:27:22;5.63;;;1.35;;
39020;SDS011;25188;51.958;5.842;2023-05-25T11:29:49;5.53;;;1.55;;
39020;SDS011;25188;51.958;5.842;2023-05-25T11:32:16;4.82;;;1.35;;
39020;SDS011;25188;51.958;5.842;2023-05-25T11:34:42;6.43;;;1.42;;
39020;SDS011;25188;51.958;5.842;2023-05-25T11:37:11;4.40;;;1.30;;
39020;SDS011;25188;51.958;5.842;2023-05-25T11:39:40;4.22;;;0.95;;
39020;SDS011;25188;51.958;5.842;2023-05-25T11:42:06;6.85;;;1.80;;
39020;SDS011;25188;51.958;5.842;2023-05-25T11:44:37;4.07;;;1.30;;
39020;SDS011;25188;51.958;5.842;2023-05-25T11:47:07;5.55;;;1.30;;
39020;SDS011;25188;51.958;5.842;2023-05-25T11:52:05;4.80;;;1.00;;
39020;SDS011;25188;51.958;5.842;2023-05-25T11:54:31;5.18;;;1.30;;
39020;SDS011;25188;51.958;5.842;2023-05-25T11:56:57;3.25;;;0.82;;
39020;SDS011;25188;51.958;5.842;2023-05-25T11:59:24;4.80;;;1.13;;
39020;SDS011;25188;51.958;5.842;2023-05-25T12:01:58;4.03;;;1.23;;
39020;SDS011;25188;51.958;5.842;2023-05-25T12:04:26;3.97;;;1.02;;
39020;SDS011;25188;51.958;5.842;2023-05-25T12:06:59;3.35;;;1.35;;
39020;SDS011;25188;51.958;5.842;2023-05-25T12:09:28;7.68;;;1.70;;
39020;SDS011;25188;51.958;5.842;2023-05-25T12:11:54;6.40;;;1.60;;
39020;SDS011;25188;51.958;5.842;2023-05-25T12:14:20;5.25;;;1.67;;
39020;SDS011;25188;51.958;5.842;2023-05-25T12:16:47;6.47;;;1.55;;
39020;SDS011;25188;51.958;5.842;2023-05-25T12:19:14;3.88;;;1.30;;
39020;SDS011;25188;51.958;5.842;2023-05-25T12:21:40;6.32;;;1.42;;
39020;SDS011;25188;51.958;5.842;2023-05-25T12:24:06;6.05;;;1.67;;
39020;SDS011;25188;51.958;5.842;2023-05-25T12:26:33;6.43;;;1.25;;
39020;SDS011;25188;51.958;5.842;2023-05-25T12:31:26;7.10;;;1.42;;
39020;SDS011;25188;51.958;5.842;2023-05-25T12:39:05;5.30;;;1.95;;
39020;SDS011;25188;51.958;5.842;2023-05-25T12:41:31;7.68;;;2.35;;
39020;SDS011;25188;51.958;5.842;2023-05-25T12:46:52;6.28;;;1.55;;
39020;SDS011;25188;51.958;5.842;2023-05-25T12:49:26;5.93;;;1.73;;
39020;SDS011;25188;51.958;5.842;2023-05-25T12:51:57;7.20;;;1.88;;
39020;SDS011;25188;51.958;5.842;2023-05-25T12:57:14;5.20;;;1.50;;
39020;SDS011;25188;51.958;5.842;2023-05-25T12:59:44;6.57;;;1.65;;
39020;SDS011;25188;51.958;5.842;2023-05-25T13:02:11;6.63;;;1.70;;
39020;SDS011;25188;51.958;5.842;2023-05-25T13:04:38;5.28;;;1.67;;
39020;SDS011;25188;51.958;5.842;2023-05-25T13:07:06;7.20;;;2.00;;
39020;SDS011;25188;51.958;5.842;2023-05-25T13:09:33;7.32;;;1.73;;
39020;SDS011;25188;51.958;5.842;2023-05-25T13:11:59;6.68;;;1.60;;
39020;SDS011;25188;51.958;5.842;2023-05-25T13:14:27;7.78;;;1.75;;
39020;SDS011;25188;51.958;5.842;2023-05-25T13:16:53;6.93;;;1.42;;
39020;SDS011;25188;51.958;5.842;2023-05-25T13:19:21;7.13;;;1.50;;
39020;SDS011;25188;51.958;5.842;2023-05-25T13:21:48;5.75;;;1.45;;
39020;SDS011;25188;51.958;5.842;2023-05-25T13:24:14;6.68;;;1.60;;
39020;SDS011;25188;51.958;5.842;2023-05-25T13:26:41;8.55;;;1.70;;
39020;SDS011;25188;51.958;5.842;2023-05-25T13:29:09;7.50;;;1.40;;
39020;SDS011;25188;51.958;5.842;2023-05-25T13:31:35;5.95;;;1.45;;
39020;SDS011;25188;51.958;5.842;2023-05-25T13:34:01;6.30;;;1.23;;
39020;SDS011;25188;51.958;5.842;2023-05-25T13:36:27;6.85;;;1.85;;
39020;SDS011;25188;51.958;5.842;2023-05-25T13:38:53;5.63;;;1.60;;
39020;SDS011;25188;51.958;5.842;2023-05-25T13:41:19;8.38;;;1.60;;
39020;SDS011;25188;51.958;5.842;2023-05-25T13:43:45;5.20;;;1.52;;
39020;SDS011;25188;51.958;5.842;2023-05-25T13:46:11;7.75;;;1.60;;
39020;SDS011;25188;51.958;5.842;2023-05-25T13:48:37;8.32;;;1.60;;
39020;SDS011;25188;51.958;5.842;2023-05-25T13:51:03;7.35;;;1.67;;
39020;SDS011;25188;51.958;5.842;2023-05-25T13:53:29;6.72;;;1.83;;
39020;SDS011;25188;51.958;5.842;2023-05-25T13:55:55;8.73;;;1.88;;
39020;SDS011;25188;51.958;5.842;2023-05-25T13:58:21;10.20;;;1.80;;
39020;SDS011;25188;51.958;5.842;2023-05-25T14:00:48;6.25;;;1.80;;
39020;SDS011;25188;51.958;5.842;2023-05-25T14:03:14;8.25;;;1.88;;
39020;SDS011;25188;51.958;5.842;2023-05-25T14:05:40;8.02;;;2.08;;
39020;SDS011;25188;51.958;5.842;2023-05-25T14:08:06;5.93;;;1.60;;
39020;SDS011;25188;51.958;5.842;2023-05-25T14:10:32;7.03;;;1.50;;
39020;SDS011;25188;51.958;5.842;2023-05-25T14:12:58;7.40;;;1.67;;
39020;SDS011;25188;51.958;5.842;2023-05-25T14:15:24;5.43;;;1.30;;
39020;SDS011;25188;51.958;5.842;2023-05-25T14:17:49;6.18;;;1.52;;
39020;SDS011;25188;51.958;5.842;2023-05-25T14:20:15;7.10;;;1.67;;
39020;SDS011;25188;51.958;5.842;2023-05-25T14:22:47;6.65;;;1.45;;
39020;SDS011;25188;51.958;5.842;2023-05-25T14:25:13;5.90;;;1.65;;
39020;SDS011;25188;51.958;5.842;2023-05-25T14:27:39;7.88;;;1.92;;
39020;SDS011;25188;51.958;5.842;2023-05-25T14:30:04;8.18;;;1.70;;
39020;SDS011;25188;51.958;5.842;2023-05-25T14:32:31;7.63;;;1.65;;
39020;SDS011;25188;51.958;5.842;2023-05-25T14:34:56;6.60;;;1.92;;
39020;SDS011;25188;51.958;5.842;2023-05-25T14:37:23;7.35;;;1.42;;
39020;SDS011;25188;51.958;5.842;2023-05-25T14:39:49;6.35;;;1.58;;
39020;SDS011;25188;51.958;5.842;2023-05-25T14:42:15;6.63;;;1.90;;
39020;SDS011;25188;51.958;5.842;2023-05-25T14:44:41;5.68;;;1.48;;
39020;SDS011;25188;51.958;5.842;2023-05-25T14:47:06;9.85;;;2.45;;
39020;SDS011;25188;51.958;5.842;2023-05-25T14:49:32;8.38;;;1.90;;
39020;SDS011;25188;51.958;5.842;2023-05-25T14:51:57;8.50;;;2.17;;
39020;SDS011;25188;51.958;5.842;2023-05-25T14:54:23;8.40;;;2.33;;
39020;SDS011;25188;51.958;5.842;2023-05-25T14:56:49;10.32;;;2.53;;
39020;SDS011;25188;51.958;5.842;2023-05-25T14:59:15;11.43;;;2.53;;
39020;SDS011;25188;51.958;5.842;2023-05-25T15:01:40;9.63;;;2.42;;
39020;SDS011;25188;51.958;5.842;2023-05-25T15:04:06;11.48;;;2.90;;
39020;SDS011;25188;51.958;5.842;2023-05-25T15:06:32;8.73;;;2.40;;
39020;SDS011;25188;51.958;5.842;2023-05-25T15:08:58;10.93;;;2.70;;
39020;SDS011;25188;51.958;5.842;2023-05-25T15:11:24;9.75;;;2.47;;
39020;SDS011;25188;51.958;5.842;2023-05-25T15:13:50;9.85;;;2.60;;